sensor_id;sensor_type;location;lat;lon;timestamp;P1;durP1;ratioP1;P2;durP2;ratioP2
17658;SDS011;8948;51.534;8.262;2023-02-01T00:04:15;28.83;;;7.10;;
17658;SDS011;8948;51.534;8.262;2023-02-01T00:09:16;24.33;;;6.67;;
17658;SDS011;8948;51.534;8.262;2023-02-01T00:14:16;21.23;;;7.17;;
17658;SDS011;8948;51.534;8.262;2023-02-01T00:19:17;32.47;;;7.17;;
17658;SDS011;8948;51.534;8.262;2023-02-01T00:24:17;24.80;;;7.23;;
17658;SDS011;8948;51.534;8.262;2023-02-01T00:29:19;31.27;;;8.27;;
17658;SDS011;8948;51.534;8.262;2023-02-01T00:34:20;27.10;;;8.33;;
17658;SDS011;8948;51.534;8.262;2023-02-01T00:39:20;30.00;;;7.77;;
17658;SDS011;8948;51.534;8.262;2023-02-01T00:44:21;24.13;;;8.10;;
17658;SDS011;8948;51.534;8.262;2023-02-01T00:49:21;40.17;;;9.50;;
17658;SDS011;8948;51.534;8.262;2023-02-01T00:54:22;31.83;;;9.20;;
17658;SDS011;8948;51.534;8.262;2023-02-01T00:59:23;29.73;;;9.60;;
17658;SDS011;8948;51.534;8.262;2023-02-01T01:04:23;34.13;;;10.13;;
17658;SDS011;8948;51.534;8.262;2023-02-01T01:09:24;37.77;;;10.53;;
17658;SDS011;8948;51.534;8.262;2023-02-01T01:14:24;48.17;;;10.90;;
17658;SDS011;8948;51.534;8.262;2023-02-01T01:19:25;36.00;;;11.07;;
17658;SDS011;8948;51.534;8.262;2023-02-01T01:24:25;28.40;;;10.73;;
17658;SDS011;8948;51.534;8.262;2023-02-01T01:29:26;35.73;;;8.63;;
17658;SDS011;8948;51.534;8.262;2023-02-01T01:34:26;27.23;;;7.83;;
17658;SDS011;8948;51.534;8.262;2023-02-01T01:39:27;37.07;;;8.87;;
17658;SDS011;8948;51.534;8.262;2023-02-01T01:50:01;25.43;;;6.70;;
17658;SDS011;8948;51.534;8.262;2023-02-01T01:55:05;24.37;;;5.90;;
17658;SDS011;8948;51.534;8.262;2023-02-01T02:05:14;21.73;;;5.07;;
17658;SDS011;8948;51.534;8.262;2023-02-01T02:10:17;22.93;;;4.73;;
17658;SDS011;8948;51.534;8.262;2023-02-01T02:15:18;20.97;;;5.03;;
17658;SDS011;8948;51.534;8.262;2023-02-01T02:41:43;24.73;;;4.27;;
17658;SDS011;8948;51.534;8.262;2023-02-01T02:52:50;25.73;;;5.40;;
17658;SDS011;8948;51.534;8.262;2023-02-01T02:58:14;24.53;;;5.07;;
17658;SDS011;8948;51.534;8.262;2023-02-01T03:21:28;24.43;;;5.43;;
17658;SDS011;8948;51.534;8.262;2023-02-01T03:26:41;29.83;;;5.90;;
17658;SDS011;8948;51.534;8.262;2023-02-01T03:31:46;32.47;;;5.50;;
17658;SDS011;8948;51.534;8.262;2023-02-01T03:37:29;25.70;;;5.67;;
17658;SDS011;8948;51.534;8.262;2023-02-01T03:42:16;21.20;;;5.47;;
17658;SDS011;8948;51.534;8.262;2023-02-01T03:47:25;28.50;;;5.57;;
17658;SDS011;8948;51.534;8.262;2023-02-01T03:52:37;25.63;;;5.53;;
17658;SDS011;8948;51.534;8.262;2023-02-01T03:57:40;25.30;;;5.00;;
17658;SDS011;8948;51.534;8.262;2023-02-01T04:02:46;29.30;;;6.80;;
17658;SDS011;8948;51.534;8.262;2023-02-01T04:07:46;26.37;;;5.23;;
17658;SDS011;8948;51.534;8.262;2023-02-01T04:12:47;26.70;;;6.40;;
17658;SDS011;8948;51.534;8.262;2023-02-01T04:17:47;36.73;;;5.90;;
17658;SDS011;8948;51.534;8.262;2023-02-01T04:22:48;25.00;;;5.20;;
17658;SDS011;8948;51.534;8.262;2023-02-01T04:27:48;18.93;;;5.37;;
17658;SDS011;8948;51.534;8.262;2023-02-01T04:32:49;26.53;;;3.83;;
17658;SDS011;8948;51.534;8.262;2023-02-01T04:37:49;22.67;;;5.00;;
17658;SDS011;8948;51.534;8.262;2023-02-01T04:42:50;21.33;;;4.67;;
17658;SDS011;8948;51.534;8.262;2023-02-01T04:47:50;26.27;;;4.77;;
17658;SDS011;8948;51.534;8.262;2023-02-01T04:52:51;24.27;;;4.70;;
17658;SDS011;8948;51.534;8.262;2023-02-01T04:57:52;25.50;;;4.93;;
17658;SDS011;8948;51.534;8.262;2023-02-01T05:02:52;26.27;;;5.00;;
17658;SDS011;8948;51.534;8.262;2023-02-01T05:07:53;36.40;;;4.87;;
17658;SDS011;8948;51.534;8.262;2023-02-01T05:12:53;22.93;;;5.10;;
17658;SDS011;8948;51.534;8.262;2023-02-01T05:18:13;23.37;;;4.90;;
17658;SDS011;8948;51.534;8.262;2023-02-01T05:23:13;26.20;;;5.33;;
17658;SDS011;8948;51.534;8.262;2023-02-01T05:28:14;19.57;;;5.07;;
17658;SDS011;8948;51.534;8.262;2023-02-01T05:33:15;26.63;;;5.53;;
17658;SDS011;8948;51.534;8.262;2023-02-01T05:38:15;25.77;;;5.30;;
17658;SDS011;8948;51.534;8.262;2023-02-01T05:43:16;25.43;;;5.97;;
17658;SDS011;8948;51.534;8.262;2023-02-01T05:48:16;28.93;;;5.37;;
17658;SDS011;8948;51.534;8.262;2023-02-01T05:53:17;29.37;;;5.63;;
17658;SDS011;8948;51.534;8.262;2023-02-01T05:58:17;25.27;;;5.57;;
17658;SDS011;8948;51.534;8.262;2023-02-01T06:03:18;25.63;;;5.10;;
17658;SDS011;8948;51.534;8.262;2023-02-01T06:08:19;25.27;;;4.47;;
17658;SDS011;8948;51.534;8.262;2023-02-01T06:13:20;22.43;;;5.20;;
17658;SDS011;8948;51.534;8.262;2023-02-01T06:18:20;25.43;;;5.80;;
17658;SDS011;8948;51.534;8.262;2023-02-01T06:23:21;29.60;;;6.00;;
17658;SDS011;8948;51.534;8.262;2023-02-01T06:28:23;35.63;;;5.53;;
17658;SDS011;8948;51.534;8.262;2023-02-01T06:33:24;23.23;;;5.07;;
17658;SDS011;8948;51.534;8.262;2023-02-01T06:38:25;23.60;;;4.33;;
17658;SDS011;8948;51.534;8.262;2023-02-01T06:43:26;25.00;;;4.73;;
17658;SDS011;8948;51.534;8.262;2023-02-01T06:48:27;28.67;;;5.30;;
17658;SDS011;8948;51.534;8.262;2023-02-01T06:53:28;26.43;;;6.40;;
17658;SDS011;8948;51.534;8.262;2023-02-01T06:58:30;33.23;;;5.80;;
17658;SDS011;8948;51.534;8.262;2023-02-01T07:03:31;28.43;;;6.57;;
17658;SDS011;8948;51.534;8.262;2023-02-01T07:08:32;29.67;;;5.70;;
17658;SDS011;8948;51.534;8.262;2023-02-01T07:13:35;34.13;;;6.73;;
17658;SDS011;8948;51.534;8.262;2023-02-01T07:18:36;22.33;;;5.33;;
17658;SDS011;8948;51.534;8.262;2023-02-01T07:23:36;28.53;;;6.03;;
17658;SDS011;8948;51.534;8.262;2023-02-01T07:28:37;31.17;;;4.67;;
17658;SDS011;8948;51.534;8.262;2023-02-01T07:33:38;31.57;;;5.70;;
17658;SDS011;8948;51.534;8.262;2023-02-01T07:38:38;24.50;;;6.03;;
17658;SDS011;8948;51.534;8.262;2023-02-01T07:43:39;17.80;;;4.73;;
17658;SDS011;8948;51.534;8.262;2023-02-01T07:48:39;18.57;;;6.10;;
17658;SDS011;8948;51.534;8.262;2023-02-01T07:53:40;25.60;;;6.20;;
17658;SDS011;8948;51.534;8.262;2023-02-01T07:58:41;26.27;;;6.00;;
17658;SDS011;8948;51.534;8.262;2023-02-01T08:03:43;29.80;;;6.93;;
17658;SDS011;8948;51.534;8.262;2023-02-01T08:08:43;20.50;;;5.93;;
17658;SDS011;8948;51.534;8.262;2023-02-01T08:13:45;16.60;;;5.20;;
17658;SDS011;8948;51.534;8.262;2023-02-01T08:18:46;23.30;;;5.57;;
17658;SDS011;8948;51.534;8.262;2023-02-01T08:23:46;33.70;;;6.90;;
17658;SDS011;8948;51.534;8.262;2023-02-01T08:28:49;30.60;;;6.23;;
17658;SDS011;8948;51.534;8.262;2023-02-01T08:33:55;33.07;;;6.30;;
17658;SDS011;8948;51.534;8.262;2023-02-01T08:38:57;24.67;;;5.57;;
17658;SDS011;8948;51.534;8.262;2023-02-01T08:43:58;31.13;;;6.87;;
17658;SDS011;8948;51.534;8.262;2023-02-01T08:48:58;27.70;;;5.30;;
17658;SDS011;8948;51.534;8.262;2023-02-01T08:53:59;28.80;;;6.53;;
17658;SDS011;8948;51.534;8.262;2023-02-01T08:59:00;35.67;;;6.93;;
17658;SDS011;8948;51.534;8.262;2023-02-01T09:04:01;25.67;;;5.87;;
17658;SDS011;8948;51.534;8.262;2023-02-01T09:09:02;25.20;;;6.40;;
17658;SDS011;8948;51.534;8.262;2023-02-01T09:14:02;22.23;;;5.93;;
17658;SDS011;8948;51.534;8.262;2023-02-01T09:19:03;27.37;;;6.43;;
17658;SDS011;8948;51.534;8.262;2023-02-01T09:24:04;27.73;;;6.47;;
17658;SDS011;8948;51.534;8.262;2023-02-01T09:29:05;27.40;;;6.03;;
17658;SDS011;8948;51.534;8.262;2023-02-01T09:34:11;25.70;;;5.30;;
17658;SDS011;8948;51.534;8.262;2023-02-01T09:39:12;28.60;;;5.90;;
17658;SDS011;8948;51.534;8.262;2023-02-01T09:44:18;25.67;;;5.93;;
17658;SDS011;8948;51.534;8.262;2023-02-01T09:49:45;31.10;;;6.50;;
17658;SDS011;8948;51.534;8.262;2023-02-01T09:55:04;28.20;;;6.47;;
17658;SDS011;8948;51.534;8.262;2023-02-01T10:00:17;25.90;;;7.10;;
17658;SDS011;8948;51.534;8.262;2023-02-01T10:10:53;23.73;;;6.73;;
17658;SDS011;8948;51.534;8.262;2023-02-01T10:16:17;33.87;;;5.47;;
17658;SDS011;8948;51.534;8.262;2023-02-01T10:21:53;29.93;;;7.00;;
17658;SDS011;8948;51.534;8.262;2023-02-01T10:27:11;27.80;;;5.97;;
17658;SDS011;8948;51.534;8.262;2023-02-01T10:32:24;20.60;;;5.07;;
17658;SDS011;8948;51.534;8.262;2023-02-01T10:37:31;21.70;;;5.40;;
17658;SDS011;8948;51.534;8.262;2023-02-01T10:42:33;20.53;;;6.60;;
17658;SDS011;8948;51.534;8.262;2023-02-01T10:47:33;23.73;;;5.30;;
17658;SDS011;8948;51.534;8.262;2023-02-01T10:52:40;25.30;;;5.93;;
17658;SDS011;8948;51.534;8.262;2023-02-01T10:57:42;26.70;;;6.13;;
17658;SDS011;8948;51.534;8.262;2023-02-01T11:02:58;22.43;;;5.53;;
17658;SDS011;8948;51.534;8.262;2023-02-01T11:07:59;26.07;;;6.37;;
17658;SDS011;8948;51.534;8.262;2023-02-01T11:13:01;24.70;;;6.17;;
17658;SDS011;8948;51.534;8.262;2023-02-01T11:18:12;25.87;;;6.10;;
17658;SDS011;8948;51.534;8.262;2023-02-01T11:23:19;22.17;;;5.97;;
17658;SDS011;8948;51.534;8.262;2023-02-01T11:28:24;30.77;;;6.37;;
17658;SDS011;8948;51.534;8.262;2023-02-01T11:33:31;24.40;;;6.13;;
17658;SDS011;8948;51.534;8.262;2023-02-01T11:38:35;30.90;;;7.00;;
17658;SDS011;8948;51.534;8.262;2023-02-01T11:43:36;29.53;;;6.37;;
17658;SDS011;8948;51.534;8.262;2023-02-01T11:48:36;29.17;;;6.00;;
17658;SDS011;8948;51.534;8.262;2023-02-01T11:53:58;24.00;;;5.53;;
17658;SDS011;8948;51.534;8.262;2023-02-01T12:09:58;27.43;;;6.47;;
17658;SDS011;8948;51.534;8.262;2023-02-01T12:20:47;27.53;;;6.53;;
17658;SDS011;8948;51.534;8.262;2023-02-01T12:46:57;33.43;;;6.30;;
17658;SDS011;8948;51.534;8.262;2023-02-01T12:52:05;22.03;;;5.60;;
17658;SDS011;8948;51.534;8.262;2023-02-01T12:57:15;20.40;;;5.73;;
17658;SDS011;8948;51.534;8.262;2023-02-01T13:02:27;19.43;;;5.80;;
17658;SDS011;8948;51.534;8.262;2023-02-01T13:07:41;26.73;;;6.77;;
17658;SDS011;8948;51.534;8.262;2023-02-01T13:12:54;19.07;;;5.87;;
17658;SDS011;8948;51.534;8.262;2023-02-01T13:18:02;24.43;;;5.93;;
17658;SDS011;8948;51.534;8.262;2023-02-01T13:23:08;20.23;;;6.07;;
17658;SDS011;8948;51.534;8.262;2023-02-01T13:44:23;33.67;;;7.73;;
17658;SDS011;8948;51.534;8.262;2023-02-01T13:49:38;22.03;;;6.33;;
17658;SDS011;8948;51.534;8.262;2023-02-01T13:54:40;31.17;;;6.80;;
17658;SDS011;8948;51.534;8.262;2023-02-01T14:04:46;22.63;;;6.53;;
17658;SDS011;8948;51.534;8.262;2023-02-01T14:09:50;25.53;;;6.03;;
17658;SDS011;8948;51.534;8.262;2023-02-01T14:14:51;37.10;;;8.17;;
17658;SDS011;8948;51.534;8.262;2023-02-01T14:25:39;24.23;;;6.13;;
17658;SDS011;8948;51.534;8.262;2023-02-01T14:30:41;20.60;;;6.27;;
17658;SDS011;8948;51.534;8.262;2023-02-01T14:35:42;30.20;;;6.27;;
17658;SDS011;8948;51.534;8.262;2023-02-01T14:41:28;21.60;;;5.17;;
17658;SDS011;8948;51.534;8.262;2023-02-01T14:47:02;27.27;;;5.60;;
17658;SDS011;8948;51.534;8.262;2023-02-01T14:52:06;29.73;;;5.23;;
17658;SDS011;8948;51.534;8.262;2023-02-01T14:57:16;19.80;;;4.27;;
17658;SDS011;8948;51.534;8.262;2023-02-01T15:02:23;22.27;;;5.60;;
17658;SDS011;8948;51.534;8.262;2023-02-01T15:07:26;24.90;;;5.83;;
17658;SDS011;8948;51.534;8.262;2023-02-01T15:12:28;27.87;;;6.37;;
17658;SDS011;8948;51.534;8.262;2023-02-01T15:17:31;30.70;;;6.00;;
17658;SDS011;8948;51.534;8.262;2023-02-01T15:22:34;28.50;;;6.53;;
17658;SDS011;8948;51.534;8.262;2023-02-01T15:27:36;25.47;;;5.50;;
17658;SDS011;8948;51.534;8.262;2023-02-01T15:32:38;28.03;;;6.17;;
17658;SDS011;8948;51.534;8.262;2023-02-01T15:37:40;28.50;;;5.00;;
17658;SDS011;8948;51.534;8.262;2023-02-01T15:42:48;19.17;;;5.00;;
17658;SDS011;8948;51.534;8.262;2023-02-01T15:47:57;29.30;;;5.17;;
17658;SDS011;8948;51.534;8.262;2023-02-01T15:52:58;24.63;;;5.00;;
17658;SDS011;8948;51.534;8.262;2023-02-01T15:57:59;15.93;;;4.20;;
17658;SDS011;8948;51.534;8.262;2023-02-01T16:03:00;27.03;;;5.00;;
17658;SDS011;8948;51.534;8.262;2023-02-01T16:08:15;18.23;;;3.53;;
17658;SDS011;8948;51.534;8.262;2023-02-01T16:13:21;27.07;;;4.67;;
17658;SDS011;8948;51.534;8.262;2023-02-01T16:18:22;24.47;;;4.50;;
17658;SDS011;8948;51.534;8.262;2023-02-01T16:23:23;21.60;;;3.80;;
17658;SDS011;8948;51.534;8.262;2023-02-01T16:28:23;28.73;;;4.47;;
17658;SDS011;8948;51.534;8.262;2023-02-01T16:33:25;17.07;;;3.70;;
17658;SDS011;8948;51.534;8.262;2023-02-01T16:38:26;15.93;;;4.00;;
17658;SDS011;8948;51.534;8.262;2023-02-01T16:43:26;29.43;;;5.03;;
17658;SDS011;8948;51.534;8.262;2023-02-01T16:48:31;29.13;;;4.20;;
17658;SDS011;8948;51.534;8.262;2023-02-01T16:53:34;17.40;;;4.40;;
17658;SDS011;8948;51.534;8.262;2023-02-01T16:58:35;18.07;;;5.83;;
17658;SDS011;8948;51.534;8.262;2023-02-01T17:03:36;24.60;;;7.20;;
17658;SDS011;8948;51.534;8.262;2023-02-01T17:08:38;33.63;;;7.90;;
17658;SDS011;8948;51.534;8.262;2023-02-01T17:13:45;35.40;;;7.93;;
17658;SDS011;8948;51.534;8.262;2023-02-01T17:19:08;36.10;;;7.13;;
17658;SDS011;8948;51.534;8.262;2023-02-01T17:24:15;23.20;;;5.17;;
17658;SDS011;8948;51.534;8.262;2023-02-01T17:29:18;19.63;;;4.90;;
17658;SDS011;8948;51.534;8.262;2023-02-01T17:34:19;25.20;;;5.17;;
17658;SDS011;8948;51.534;8.262;2023-02-01T17:39:20;14.80;;;3.40;;
17658;SDS011;8948;51.534;8.262;2023-02-01T17:44:39;4.07;;;2.20;;
17658;SDS011;8948;51.534;8.262;2023-02-01T17:49:40;7.67;;;2.10;;
17658;SDS011;8948;51.534;8.262;2023-02-01T17:54:40;4.57;;;2.00;;
17658;SDS011;8948;51.534;8.262;2023-02-01T17:59:41;4.80;;;1.70;;
17658;SDS011;8948;51.534;8.262;2023-02-01T18:04:42;10.63;;;3.00;;
17658;SDS011;8948;51.534;8.262;2023-02-01T18:09:42;17.17;;;2.87;;
17658;SDS011;8948;51.534;8.262;2023-02-01T18:14:43;10.47;;;2.33;;
17658;SDS011;8948;51.534;8.262;2023-02-01T18:19:44;15.23;;;3.37;;
17658;SDS011;8948;51.534;8.262;2023-02-01T18:24:44;11.57;;;2.93;;
17658;SDS011;8948;51.534;8.262;2023-02-01T18:29:45;9.70;;;2.57;;
17658;SDS011;8948;51.534;8.262;2023-02-01T18:34:45;8.50;;;2.60;;
17658;SDS011;8948;51.534;8.262;2023-02-01T18:39:46;16.07;;;2.80;;
17658;SDS011;8948;51.534;8.262;2023-02-01T18:44:46;14.07;;;2.63;;
17658;SDS011;8948;51.534;8.262;2023-02-01T18:49:47;9.63;;;2.43;;
17658;SDS011;8948;51.534;8.262;2023-02-01T18:54:47;6.77;;;2.87;;
17658;SDS011;8948;51.534;8.262;2023-02-01T18:59:48;26.23;;;9.67;;
17658;SDS011;8948;51.534;8.262;2023-02-01T19:04:48;17.30;;;10.20;;
17658;SDS011;8948;51.534;8.262;2023-02-01T19:09:49;20.70;;;8.70;;
17658;SDS011;8948;51.534;8.262;2023-02-01T19:14:49;23.47;;;6.93;;
17658;SDS011;8948;51.534;8.262;2023-02-01T19:19:50;20.20;;;5.63;;
17658;SDS011;8948;51.534;8.262;2023-02-01T19:24:51;10.17;;;4.13;;
17658;SDS011;8948;51.534;8.262;2023-02-01T19:29:52;8.93;;;3.33;;
17658;SDS011;8948;51.534;8.262;2023-02-01T19:34:52;7.90;;;2.57;;
17658;SDS011;8948;51.534;8.262;2023-02-01T19:39:53;10.13;;;3.00;;
17658;SDS011;8948;51.534;8.262;2023-02-01T19:44:54;9.10;;;2.53;;
17658;SDS011;8948;51.534;8.262;2023-02-01T19:49:54;14.03;;;2.50;;
17658;SDS011;8948;51.534;8.262;2023-02-01T19:54:55;5.60;;;2.00;;
17658;SDS011;8948;51.534;8.262;2023-02-01T19:59:55;9.03;;;2.37;;
17658;SDS011;8948;51.534;8.262;2023-02-01T20:04:56;6.67;;;1.70;;
17658;SDS011;8948;51.534;8.262;2023-02-01T20:09:56;9.93;;;2.37;;
17658;SDS011;8948;51.534;8.262;2023-02-01T20:14:57;10.67;;;2.17;;
17658;SDS011;8948;51.534;8.262;2023-02-01T20:19:57;6.97;;;2.17;;
17658;SDS011;8948;51.534;8.262;2023-02-01T20:24:58;9.03;;;2.33;;
17658;SDS011;8948;51.534;8.262;2023-02-01T20:30:00;6.47;;;2.07;;
17658;SDS011;8948;51.534;8.262;2023-02-01T20:35:01;11.70;;;2.33;;
17658;SDS011;8948;51.534;8.262;2023-02-01T20:40:02;8.80;;;2.37;;
17658;SDS011;8948;51.534;8.262;2023-02-01T20:45:03;12.03;;;3.77;;
17658;SDS011;8948;51.534;8.262;2023-02-01T20:50:04;17.67;;;4.67;;
17658;SDS011;8948;51.534;8.262;2023-02-01T20:55:05;12.73;;;6.20;;
17658;SDS011;8948;51.534;8.262;2023-02-01T21:00:06;15.33;;;7.87;;
17658;SDS011;8948;51.534;8.262;2023-02-01T21:05:09;17.40;;;7.70;;
17658;SDS011;8948;51.534;8.262;2023-02-01T21:10:10;26.50;;;9.40;;
17658;SDS011;8948;51.534;8.262;2023-02-01T21:15:10;22.67;;;7.87;;
17658;SDS011;8948;51.534;8.262;2023-02-01T21:20:11;21.07;;;7.23;;
17658;SDS011;8948;51.534;8.262;2023-02-01T21:25:12;11.03;;;5.30;;
17658;SDS011;8948;51.534;8.262;2023-02-01T21:30:13;20.53;;;5.67;;
17658;SDS011;8948;51.534;8.262;2023-02-01T21:35:14;19.10;;;4.03;;
17658;SDS011;8948;51.534;8.262;2023-02-01T21:40:16;23.10;;;3.57;;
17658;SDS011;8948;51.534;8.262;2023-02-01T21:45:16;16.80;;;3.63;;
17658;SDS011;8948;51.534;8.262;2023-02-01T21:50:17;19.77;;;4.20;;
17658;SDS011;8948;51.534;8.262;2023-02-01T21:55:19;12.73;;;3.20;;
17658;SDS011;8948;51.534;8.262;2023-02-01T22:00:19;11.57;;;3.10;;
17658;SDS011;8948;51.534;8.262;2023-02-01T22:05:20;16.93;;;3.03;;
17658;SDS011;8948;51.534;8.262;2023-02-01T22:10:21;14.60;;;2.60;;
17658;SDS011;8948;51.534;8.262;2023-02-01T22:15:21;16.20;;;2.70;;
17658;SDS011;8948;51.534;8.262;2023-02-01T22:20:23;19.43;;;3.30;;
17658;SDS011;8948;51.534;8.262;2023-02-01T22:25:23;10.20;;;2.30;;
17658;SDS011;8948;51.534;8.262;2023-02-01T22:30:24;12.23;;;2.77;;
17658;SDS011;8948;51.534;8.262;2023-02-01T22:35:24;11.80;;;3.03;;
17658;SDS011;8948;51.534;8.262;2023-02-01T22:40:25;9.87;;;2.93;;
17658;SDS011;8948;51.534;8.262;2023-02-01T22:45:25;9.70;;;2.80;;
17658;SDS011;8948;51.534;8.262;2023-02-01T22:50:26;9.73;;;2.30;;
17658;SDS011;8948;51.534;8.262;2023-02-01T22:55:26;10.83;;;2.50;;
17658;SDS011;8948;51.534;8.262;2023-02-01T23:00:27;12.47;;;2.23;;
17658;SDS011;8948;51.534;8.262;2023-02-01T23:05:28;11.27;;;2.30;;
17658;SDS011;8948;51.534;8.262;2023-02-01T23:10:28;12.67;;;2.13;;
17658;SDS011;8948;51.534;8.262;2023-02-01T23:15:29;19.87;;;2.60;;
17658;SDS011;8948;51.534;8.262;2023-02-01T23:20:29;16.03;;;2.43;;
17658;SDS011;8948;51.534;8.262;2023-02-01T23:25:30;11.10;;;2.30;;
17658;SDS011;8948;51.534;8.262;2023-02-01T23:30:31;10.97;;;2.73;;
17658;SDS011;8948;51.534;8.262;2023-02-01T23:35:31;14.07;;;2.50;;
17658;SDS011;8948;51.534;8.262;2023-02-01T23:40:32;8.67;;;2.00;;
17658;SDS011;8948;51.534;8.262;2023-02-01T23:45:32;17.30;;;2.70;;
17658;SDS011;8948;51.534;8.262;2023-02-01T23:50:33;12.10;;;2.33;;
17658;SDS011;8948;51.534;8.262;2023-02-01T23:55:34;10.43;;;2.10;;
